This is the latest recevied weather packets stored in our database for station/object SV3CQY. If no packets are shown the sender has not sent any weather packets the latest 10 day(s).
| Time | Temp. | Humidity | Pressure | Rain* | Wind** | Luminosity | Snow |
|---|---|---|---|---|---|---|---|
| 1777989912 | 25° C | 26% | 1015 hPa | 0 mm | - | - | - |
| 1777989008 | 25° C | 27% | 1015.1 hPa | 0 mm | - | - | - |
| 1777988109 | 25° C | 28% | 1015 hPa | 0 mm | - | - | - |
| 1777986925 | 25° C | 32% | 1015.1 hPa | 0 mm | - | - | - |
| 1777984509 | 25.56° C | 31% | 1015.7 hPa | 0 mm | - | - | - |
| 1777982426 | 25.56° C | 28% | 1016 hPa | 0 mm | - | - | - |
| 1777980911 | 25° C | 32% | 1016.2 hPa | 0 mm | - | - | - |
| 1777980625 | 24.44° C | 36% | 1016.3 hPa | 0 mm | - | - | - |
| 1777979735 | 23.89° C | 36% | 1016.3 hPa | 0 mm | - | - | - |
| 1777979411 | 23.89° C | 36% | 1016.4 hPa | 0 mm | - | - | - |
| 1777979111 | 23.89° C | 40% | 1016.4 hPa | 0 mm | - | - | - |
| 1777972211 | 20.56° C | 61% | 1017.1 hPa | 0 mm | - | - | - |
| 1777971310 | 19.44° C | 67% | 1017.1 hPa | 0 mm | - | - | - |
| 1777970728 | 19.44° C | 68% | 1017.1 hPa | 0 mm | - | - | - |
| 1777970411 | 18.89° C | 71% | 1017.2 hPa | 0 mm | - | - | - |
| 1777969829 | 18.33° C | 73% | 1017.3 hPa | 0 mm | - | - | - |
| 1777968608 | 18.33° C | 73% | 1017.2 hPa | 0 mm | - | - | - |
| 1777968028 | 18.89° C | 72% | 1017.2 hPa | 0 mm | - | - | - |
| 1777966241 | 19.44° C | 65% | 1017.3 hPa | 0 mm | - | - | - |
| 1777965344 | 18.33° C | 71% | 1017.3 hPa | 0 mm | - | - | - |
| 1777963528 | 16.67° C | 81% | 1017.5 hPa | 0 mm | - | - | - |
| 1777961115 | 16.11° C | 80% | 1017.5 hPa | 0 mm | - | - | - |
| 1777960512 | 16.11° C | 80% | 1017.5 hPa | 0 mm | - | - | - |
| 1777958430 | 15° C | 77% | 1017.6 hPa | 0 mm | - | - | - |
| 1777958136 | 15° C | 77% | 1017.6 hPa | 0 mm | - | - | - |
* Rain latest hour (hover to see other rain measurements)
** Current wind speed in m/s (hover to see current wind gust speed)